Currently 76°F in Simi Valley, California, USA
76°F
76°F / 54°F
3 mph W
0.00"
Monday, April 23, 2018 10:23 AM PDT

Simi Valley, California Climate Summary
Typical September Day

Normal High:    87.0°F (30.6°C)
Normal Low:    60.9°F (16.0°C)
Average:    72.5°F (22.5°C)

Hour    Temperature    Wind Speed    Humidity
12:00 AM    66°F (19°C)    2 mph    64%
1:00 AM    65°F (19°C)    1 mph    65%
2:00 AM    65°F (18°C)    2 mph    66%
3:00 AM    64°F (18°C)    2 mph    67%
4:00 AM    63°F (17°C)    2 mph    68%
5:00 AM    63°F (17°C)    2 mph    69%
6:00 AM    62°F (17°C)    2 mph    70%
7:00 AM    62°F (17°C)    2 mph    71%
8:00 AM    64°F (18°C)    1 mph    70%
9:00 AM    70°F (21°C)    2 mph    64%
10:00 AM    75°F (24°C)    3 mph    55%
11:00 AM    80°F (27°C)    4 mph    47%
12:00 PM    84°F (29°C)    5 mph    41%
1:00 PM    85°F (30°C)    6 mph    39%
2:00 PM    86°F (30°C)    7 mph    39%
3:00 PM    85°F (29°C)    7 mph    40%
4:00 PM    84°F (29°C)    7 mph    41%
5:00 PM    82°F (28°C)    6 mph    43%
6:00 PM    80°F (26°C)    5 mph    47%
7:00 PM    76°F (25°C)    3 mph    52%
8:00 PM    73°F (23°C)    2 mph    58%
9:00 PM    71°F (21°C)    1 mph    60%
10:00 PM    69°F (20°C)    2 mph    61%
11:00 PM    67°F (20°C)    2 mph    63%
 

The Simi Valley, California weather pages are a service of WeatherCurrents.
Copyright ©Mon Apr 23 10:23:58 PDT 2018  WeatherCurrents. All rights reserved. - Submit questions and comments - Privacy Policy